Time;durP1;ratioP1;P1;durP2;ratioP2;P2;SDS_P1;SDS_P2;PMS_P1;PMS_P2;Temp;Humidity;BMP_temperature;BMP_pressure;BME280_temperature;BME280_humidity;BME280_pressure;Samples;Min_cycle;Max_cycle;Signal;HPM_P1;HPM_P2
2024/02/11 00:01:08;;;;;;;;;9.33;6.67;;;;;9.15;78.39;98724.81;2048550;27;2770156;-83
2024/02/11 00:02:19;;;;;;;;;16.00;11.00;;;;;9.15;78.55;98716.94;2045493;27;1848195;-83
2024/02/11 00:03:30;;;;;;;;;10.00;8.33;;;;;9.15;78.22;98723.03;2027690;27;3485655;-83
2024/02/11 00:04:42;;;;;;;;;8.00;7.33;;;;;9.18;78.30;98724.63;2050254;28;2748174;-83
2024/02/11 00:05:57;;;;;;;;;11.00;9.33;;;;;9.17;78.57;98718.53;2016553;28;1841905;-83
2024/02/11 00:07:08;;;;;;;;;11.67;8.00;;;;;9.17;78.20;98718.53;2003233;28;2761829;-83
2024/02/11 00:08:20;;;;;;;;;11.50;9.00;;;;;9.17;78.15;98715.91;2044276;28;2751335;-83
2024/02/11 00:09:30;;;;;;;;;12.00;9.00;;;;;9.16;78.09;98716.84;2024441;27;3496060;-83
2024/02/11 00:10:41;;;;;;;;;10.33;9.00;;;;;9.15;78.03;98720.41;2037044;27;2768080;-83
2024/02/11 00:11:52;;;;;;;;;10.33;8.67;;;;;9.16;78.07;98716.84;2045856;27;3477351;-83
2024/02/11 00:13:03;;;;;;;;;11.00;11.00;;;;;9.15;78.19;98720.41;2047622;27;3496061;-82
2024/02/11 00:14:14;;;;;;;;;9.00;9.00;;;;;9.16;78.32;98721.25;2038964;27;2750249;-82
2024/02/11 00:15:25;;;;;;;;;10.00;10.00;;;;;9.15;78.14;98724.81;2046483;27;2770024;-82
2024/02/11 00:16:36;;;;;;;;;11.33;10.00;;;;;9.13;78.52;98716.19;2030526;27;3501298;-83
2024/02/11 00:17:48;;;;;;;;;10.33;8.33;;;;;9.12;78.53;98717.97;2055441;27;1831588;-83
2024/02/11 00:18:58;;;;;;;;;9.67;9.67;;;;;9.13;78.23;98717.03;2002925;27;3487759;-83
2024/02/11 00:20:10;;;;;;;;;11.00;7.00;;;;;9.12;78.40;98717.97;2047772;27;2763813;-83
2024/02/11 00:21:23;;;;;;;;;9.17;7.00;;;;;9.12;78.01;98723.19;2049166;28;2738779;-83
2024/02/11 00:22:35;;;;;;;;;8.00;8.00;;;;;9.12;78.37;98728.44;2012410;27;1826392;-83
2024/02/11 00:23:45;;;;;;;;;9.33;9.33;;;;;9.11;78.49;98727.59;2032166;27;2766516;-83
2024/02/11 00:24:56;;;;;;;;;7.67;7.00;;;;;9.13;78.25;98732.75;2039807;27;3450332;-83
2024/02/11 00:26:07;;;;;;;;;8.67;8.00;;;;;9.12;78.23;98736.31;2043469;27;3472123;-83
2024/02/11 00:27:18;;;;;;;;;12.67;9.00;;;;;9.13;78.55;98732.75;2035670;27;3478369;-83
2024/02/11 00:28:29;;;;;;;;;10.00;8.00;;;;;9.11;78.12;98740.69;2045675;27;3487747;-83
2024/02/11 00:29:40;;;;;;;;;8.00;8.00;;;;;9.10;78.06;98741.66;2050270;28;2742984;-83
2024/02/11 00:30:51;;;;;;;;;7.67;7.33;;;;;9.10;78.25;98740.81;2002584;28;3456509;-83
2024/02/11 00:32:02;;;;;;;;;11.33;7.33;;;;;9.10;78.39;98728.53;2029225;27;3500238;-82
2024/02/11 00:33:12;;;;;;;;;10.00;10.00;;;;;9.12;78.30;98746.78;2025564;28;3481545;-82
2024/02/11 00:34:24;;;;;;;;;9.67;8.00;;;;;9.11;78.39;98745.94;2050979;28;2748190;-82
2024/02/11 00:35:37;;;;;;;;;11.00;7.83;;;;;9.13;78.78;98742.41;2033639;27;2745055;-82
2024/02/11 00:36:49;;;;;;;;;11.33;8.00;;;;;9.12;78.47;98741.53;2008232;27;3471096;-82
2024/02/11 00:38:02;;;;;;;;;9.33;7.83;;;;;9.12;78.89;98733.69;2061044;27;2742002;-82
2024/02/11 00:39:16;;;;;;;;;5.00;5.00;;;;;9.15;78.72;98745.78;2038674;27;2732565;-82
2024/02/11 00:40:28;;;;;;;;;7.33;6.00;;;;;9.17;78.18;98743.91;2033646;27;3471066;-82
2024/02/11 00:41:42;;;;;;;;;9.00;6.33;;;;;9.16;78.41;98737.81;2033143;27;2754440;-82
2024/02/11 00:42:52;;;;;;;;;6.00;6.00;;;;;9.16;78.53;98743.03;2026817;28;2750268;-82
2024/02/11 00:44:04;;;;;;;;;8.33;6.67;;;;;9.18;78.58;98735.09;2044567;27;2741944;-82
2024/02/11 00:45:14;;;;;;;;;10.00;7.00;;;;;9.19;78.79;98745.50;2044860;27;2767695;-82
2024/02/11 00:46:26;;;;;;;;;5.25;4.50;;;;;9.21;78.88;98737.56;2052709;27;2750267;-82
2024/02/11 00:47:37;;;;;;;;;9.00;7.33;;;;;9.21;78.63;98743.63;2033302;27;3475247;-82
2024/02/11 00:48:48;;;;;;;;;6.33;4.33;;;;;9.24;78.74;98737.34;2047126;27;2746133;-82
2024/02/11 00:50:00;;;;;;;;;8.00;8.00;;;;;9.25;78.98;98740.81;2059204;27;2747166;-82
2024/02/11 00:51:13;;;;;;;;;9.00;7.17;;;;;9.26;78.67;98750.38;2060192;27;2752366;-82
2024/02/11 00:52:23;;;;;;;;;12.00;9.00;;;;;9.27;78.86;98739.78;2009615;27;3486690;-82
2024/02/11 00:53:36;;;;;;;;;6.33;3.33;;;;;9.30;78.90;98744.88;2049165;27;2754432;-82
2024/02/11 00:54:50;;;;;;;;;8.17;6.00;;;;;9.30;78.76;98741.41;2059837;27;2746099;-82
2024/02/11 00:56:02;;;;;;;;;7.67;6.67;;;;;9.32;78.69;98747.38;2010491;27;2754546;-82
2024/02/11 00:57:12;;;;;;;;;6.67;5.33;;;;;9.34;78.95;98745.50;2024508;27;3468306;-82
2024/02/11 00:58:23;;;;;;;;;10.67;7.33;;;;;9.35;78.93;98747.22;2031368;28;3480455;-82
2024/02/11 00:59:35;;;;;;;;;6.00;5.00;;;;;9.36;78.59;98743.63;2044064;28;2740879;-82
2024/02/11 01:00:45;;;;;;;;;8.33;7.33;;;;;9.36;78.59;98743.63;2029199;27;2743040;-82
2024/02/11 01:01:56;;;;;;;;;11.33;6.33;;;;;9.38;78.76;98738.31;2049236;27;2773716;-82
2024/02/11 01:03:07;;;;;;;;;8.00;8.00;;;;;9.40;78.51;98742.53;2049859;27;2751922;-82
2024/02/11 01:04:19;;;;;;;;;11.75;9.00;;;;;9.40;78.52;98737.28;2063336;27;1831524;-83
2024/02/11 01:05:32;;;;;;;;;8.33;7.00;;;;;9.41;78.66;98741.59;2045902;28;2750293;-82
2024/02/11 01:06:42;;;;;;;;;8.33;5.67;;;;;9.42;78.56;98743.28;2001430;27;3473167;-82
2024/02/11 01:07:53;;;;;;;;;9.33;7.33;;;;;9.43;78.44;98744.94;2043511;27;2760674;-82
2024/02/11 01:09:06;;;;;;;;;8.67;7.00;;;;;9.44;78.58;98741.41;2051645;27;2756510;-82
2024/02/11 01:10:16;;;;;;;;;7.67;6.00;;;;;9.45;78.93;98748.34;2004018;28;3463782;-82
2024/02/11 01:11:27;;;;;;;;;11.33;7.67;;;;;9.45;78.56;98742.25;2035797;27;3501311;-83
2024/02/11 01:12:39;;;;;;;;;9.00;8.33;;;;;9.46;78.54;98738.69;2031991;28;2739999;-82
2024/02/11 01:13:52;;;;;;;;;8.33;7.83;;;;;9.49;78.59;98748.13;2036947;28;2747164;-82
2024/02/11 01:15:03;;;;;;;;;6.00;5.33;;;;;9.50;78.26;98741.97;1995493;28;2748189;-82
2024/02/11 01:16:16;;;;;;;;;5.60;4.00;;;;;9.51;78.81;98741.00;2045296;28;2746098;-82
2024/02/11 01:17:29;;;;;;;;;8.00;5.00;;;;;9.51;78.77;98741.00;2051625;28;2745561;-82
2024/02/11 01:18:45;;;;;;;;;6.67;6.33;;;;;9.52;78.72;98745.34;2030608;27;2752391;-82
2024/02/11 01:19:56;;;;;;;;;6.67;5.67;;;;;9.52;78.45;98738.31;2012157;27;2748181;-82
2024/02/11 01:21:07;;;;;;;;;7.00;5.67;;;;;9.54;78.77;98740.84;2060522;27;2746102;-82
2024/02/11 01:22:20;;;;;;;;;5.50;5.33;;;;;9.54;78.42;98733.81;2030266;28;2748204;-82
2024/02/11 01:23:33;;;;;;;;;6.50;6.00;;;;;9.54;78.27;98739.06;2029311;28;2746449;-82
2024/02/11 01:24:45;;;;;;;;;10.00;5.00;;;;;9.54;78.49;98744.31;2015757;28;1837837;-82
2024/02/11 01:25:58;;;;;;;;;7.33;6.00;;;;;9.56;78.29;98742.44;2052486;28;2750253;-82
2024/02/11 01:27:09;;;;;;;;;4.67;4.00;;;;;9.56;78.37;98738.97;2005607;27;2750375;-82
2024/02/11 01:28:20;;;;;;;;;7.67;5.67;;;;;9.56;78.29;98737.19;2058943;27;2740918;-82
2024/02/11 01:29:30;;;;;;;;;10.00;4.33;;;;;9.56;78.32;98738.97;2002110;28;3487748;-82
2024/02/11 01:30:41;;;;;;;;;9.67;6.67;;;;;9.58;78.36;98747.56;2042490;28;2751302;-82
2024/02/11 01:31:52;;;;;;;;;9.33;5.67;;;;;9.57;78.43;98736.25;2040656;27;2751301;-82
2024/02/11 01:33:04;;;;;;;;;5.33;4.00;;;;;9.59;78.48;98741.41;2048354;27;3470026;-82
2024/02/11 01:34:15;;;;;;;;;6.67;4.00;;;;;9.60;78.37;98740.47;2034921;27;2754777;-82
2024/02/11 01:35:28;;;;;;;;;11.33;8.33;;;;;9.59;78.28;98741.41;2033566;27;3500227;-82
2024/02/11 01:36:38;;;;;;;;;5.67;3.67;;;;;9.61;78.54;98744.78;2035647;27;2754435;-82
2024/02/11 01:37:49;;;;;;;;;8.00;5.67;;;;;9.60;78.19;98734.38;2061209;27;2744026;-82
2024/02/11 01:39:00;;;;;;;;;6.67;5.67;;;;;9.61;78.25;98734.28;2010321;27;2756644;-82
2024/02/11 01:40:15;;;;;;;;;6.00;5.00;;;;;9.61;77.88;98729.03;2044685;27;2754465;-82
2024/02/11 01:41:26;;;;;;;;;10.33;6.67;;;;;9.59;78.20;98733.53;2030827;27;3490148;-82
2024/02/11 01:42:39;;;;;;;;;5.67;5.67;;;;;9.60;77.91;98734.38;2042634;28;2745178;-82
2024/02/11 01:43:52;;;;;;;;;6.33;5.50;;;;;9.58;78.00;98731.84;2052024;28;2747137;-82
2024/02/11 01:45:03;;;;;;;;;10.00;5.00;;;;;9.57;77.98;98738.88;2001808;28;3480436;-82
2024/02/11 01:46:14;;;;;;;;;10.00;7.00;;;;;9.56;77.88;98733.72;2027272;27;3492944;-82
2024/02/11 01:47:25;;;;;;;;;5.67;5.00;;;;;9.56;78.08;98731.09;2031234;27;2749351;-82
2024/02/11 01:48:36;;;;;;;;;6.25;4.50;;;;;9.56;77.84;98738.97;2059648;27;2735690;-82
2024/02/11 01:49:50;;;;;;;;;6.17;5.67;;;;;9.54;77.94;98736.44;2061624;27;2750278;-82
2024/02/11 01:51:00;;;;;;;;;11.00;5.00;;;;;9.54;77.79;98732.97;2011528;27;2775319;-82
2024/02/11 01:52:13;;;;;;;;;8.00;4.67;;;;;9.53;78.13;98737.38;2044800;27;3477314;-82
2024/02/11 01:53:26;;;;;;;;;5.33;4.67;;;;;9.52;78.06;98737.47;2034435;27;3450244;-82
2024/02/11 01:54:40;;;;;;;;;7.00;5.33;;;;;9.52;78.01;98737.47;2061493;27;2741662;-82
2024/02/11 01:55:55;;;;;;;;;8.33;6.17;;;;;9.53;78.34;98740.00;2038513;27;2752333;-82
2024/02/11 01:57:05;;;;;;;;;5.33;5.00;;;;;9.54;77.79;98746.09;2012291;27;2750268;-82
2024/02/11 01:58:18;;;;;;;;;6.00;6.00;;;;;9.54;78.13;98738.22;2056910;27;2744470;-82
2024/02/11 01:59:32;;;;;;;;;8.00;5.00;;;;;9.55;78.10;98743.38;2030858;27;2745442;-82
2024/02/11 02:00:43;;;;;;;;;9.00;6.00;;;;;9.55;78.16;98737.28;2028031;27;2763911;-82
2024/02/11 02:01:58;;;;;;;;;9.33;5.17;;;;;9.55;78.45;98742.53;2061161;27;2748159;-82
2024/02/11 02:03:11;;;;;;;;;6.00;4.67;;;;;9.57;78.23;98745.91;2005184;28;2750293;-82
2024/02/11 02:04:22;;;;;;;;;6.33;5.33;;;;;9.57;78.07;98740.66;2027271;28;2749215;-82
2024/02/11 02:05:33;;;;;;;;;9.50;5.50;;;;;9.59;78.04;98744.03;2051692;27;2770056;-82
2024/02/11 02:06:44;;;;;;;;;4.00;4.00;;;;;9.59;78.09;98743.19;2026478;28;2754447;-82
2024/02/11 02:07:57;;;;;;;;;4.00;4.00;;;;;9.60;77.84;98745.72;2043084;27;3470027;-82
2024/02/11 02:09:10;;;;;;;;;6.67;5.00;;;;;9.60;77.92;98745.72;2030201;27;3470039;-82
2024/02/11 02:10:23;;;;;;;;;6.17;5.50;;;;;9.61;78.03;98752.63;2052337;27;2748202;-82
2024/02/11 02:11:38;;;;;;;;;5.17;5.17;;;;;9.62;77.83;98745.63;2030397;27;2754490;-82
2024/02/11 02:12:49;;;;;;;;;5.67;4.00;;;;;9.63;77.79;98750.75;2011771;27;2754492;-82
2024/02/11 02:14:00;;;;;;;;;3.67;3.33;;;;;9.63;77.85;98755.19;2059476;27;2744038;-82
2024/02/11 02:15:14;;;;;;;;;6.17;5.83;;;;;9.62;77.94;98746.47;2038748;27;2748228;-82
2024/02/11 02:16:27;;;;;;;;;6.33;3.17;;;;;9.65;77.81;98753.31;2038161;27;2742989;-82
2024/02/11 02:17:45;;;;;;;;;6.33;4.17;;;;;9.64;77.87;98749.00;2033900;27;2750340;-82
2024/02/11 02:18:58;;;;;;;;;5.17;4.00;;;;;9.65;77.94;98746.28;2028794;28;2739853;-82
2024/02/11 02:20:13;;;;;;;;;5.33;5.33;;;;;9.67;77.63;98746.19;2028881;27;2741944;-82
2024/02/11 02:21:27;;;;;;;;;4.33;4.00;;;;;9.66;77.77;98742.72;2012184;27;2754416;-82
2024/02/11 02:22:38;;;;;;;;;10.67;5.00;;;;;9.68;77.40;98747.84;2034392;27;3499201;-82
2024/02/11 02:23:49;;;;;;;;;4.33;3.00;;;;;9.68;77.62;98745.22;2059849;27;2746098;-82
2024/02/11 02:25:04;;;;;;;;;6.00;4.83;;;;;9.69;78.00;98754.81;2037366;27;2744063;-82
2024/02/11 02:26:15;;;;;;;;;6.00;3.00;;;;;9.71;77.72;98741.56;2003458;28;2754420;-82
2024/02/11 02:27:25;;;;;;;;;7.00;5.00;;;;;9.71;77.73;98746.81;2026436;27;2762776;-82
2024/02/11 02:28:36;;;;;;;;;6.67;4.33;;;;;9.70;77.62;98742.53;2056461;27;2742957;-82
2024/02/11 02:29:49;;;;;;;;;4.83;4.17;;;;;9.71;77.63;98750.28;2061428;27;2748185;-82
2024/02/11 02:31:05;;;;;;;;;4.33;3.17;;;;;9.72;77.88;98743.28;2037973;27;2742992;-82
2024/02/11 02:32:15;;;;;;;;;5.33;4.33;;;;;9.71;77.57;98747.66;2010462;27;2750257;-82
2024/02/11 02:33:28;;;;;;;;;5.33;5.00;;;;;9.72;77.81;98744.13;2058377;27;2754879;-82
2024/02/11 02:34:43;;;;;;;;;6.17;5.83;;;;;9.73;77.87;98747.59;2037775;27;2739888;-82
2024/02/11 02:35:54;;;;;;;;;5.33;4.33;;;;;9.74;78.05;98751.88;2010730;27;2754431;-82
2024/02/11 02:37:07;;;;;;;;;4.33;4.33;;;;;9.73;77.80;98748.41;2060645;27;2748211;-82
2024/02/11 02:38:18;;;;;;;;;6.00;5.00;;;;;9.74;77.77;98747.50;2008196;27;2754491;-82
2024/02/11 02:39:29;;;;;;;;;9.33;3.33;;;;;9.76;77.82;98755.25;2033826;27;3498175;-82
2024/02/11 02:40:41;;;;;;;;;4.00;3.00;;;;;9.75;77.86;98750.97;2057471;27;2748190;-82
2024/02/11 02:41:54;;;;;;;;;7.00;3.50;;;;;9.78;77.70;98742.88;2053722;27;2754466;-82
2024/02/11 02:43:10;;;;;;;;;7.67;4.00;;;;;9.79;78.17;98749.81;2010147;27;2754416;-82
2024/02/11 02:44:21;;;;;;;;;6.00;5.00;;;;;9.79;77.60;98747.19;2035200;27;2760700;-82
2024/02/11 02:45:32;;;;;;;;;4.67;4.67;;;;;9.78;77.92;98742.88;2050648;27;2754518;-82
2024/02/11 02:46:42;;;;;;;;;5.00;3.33;;;;;9.79;77.95;98744.59;2048563;27;2752444;-82
2024/02/11 02:47:55;;;;;;;;;3.50;2.75;;;;;9.81;77.86;98747.09;2059643;27;2737769;-82
2024/02/11 02:49:05;;;;;;;;;5.33;4.33;;;;;9.80;78.14;98746.28;2019882;28;2754442;-82
2024/02/11 02:50:16;;;;;;;;;4.33;3.33;;;;;9.79;77.90;98745.44;2035318;28;2742990;-82
2024/02/11 02:51:27;;;;;;;;;5.00;5.00;;;;;9.81;77.72;98742.69;2031739;28;2752348;-82
2024/02/11 02:52:39;;;;;;;;;4.75;3.75;;;;;9.80;77.89;98743.66;2045956;27;2749203;-82
2024/02/11 02:53:49;;;;;;;;;4.67;3.00;;;;;9.82;78.00;98747.03;2025760;27;2746181;-83
2024/02/11 02:55:05;;;;;;;;;3.00;3.00;;;;;9.81;77.55;98747.09;2044489;27;2754449;-82
2024/02/11 02:56:19;;;;;;;;;4.17;1.67;;;;;9.82;77.83;98747.03;2061786;27;2729488;-82
2024/02/11 02:57:33;;;;;;;;;5.17;2.50;;;;;9.83;77.79;98745.25;2027510;28;2754538;-82
2024/02/11 02:58:44;;;;;;;;;8.00;3.67;;;;;9.82;78.16;98746.19;2001896;27;2755472;-82
2024/02/11 02:59:58;;;;;;;;;3.83;2.83;;;;;9.83;77.94;98750.50;2059429;27;2744027;-82
2024/02/11 03:01:19;;;;;;;;;6.67;4.33;;;;;9.81;77.99;98742.69;2034809;27;2750278;-82
2024/02/11 03:02:34;;;;;;;;;3.17;3.17;;;;;9.84;77.95;98752.16;2035285;27;2750269;-82
2024/02/11 03:03:48;;;;;;;;;5.67;3.83;;;;;9.86;78.00;98752.91;2022840;28;2740889;-82
2024/02/11 03:05:00;;;;;;;;;6.67;6.00;;;;;9.84;77.97;98750.38;2002149;27;3466906;-82
2024/02/11 03:06:10;;;;;;;;;6.33;5.33;;;;;9.85;77.96;98746.81;2026587;28;2757631;-82
2024/02/11 03:07:22;;;;;;;;;6.33;4.00;;;;;9.86;77.81;98748.50;2052110;28;2751342;-82
2024/02/11 03:08:35;;;;;;;;;6.67;4.67;;;;;9.87;77.96;98744.97;2056415;27;2742977;-83
2024/02/11 03:09:48;;;;;;;;;5.17;2.33;;;;;9.86;77.90;98745.88;2037667;27;2733591;-83
2024/02/11 03:10:58;;;;;;;;;7.00;4.67;;;;;9.88;77.75;98749.25;2010004;27;2752431;-82
2024/02/11 03:12:09;;;;;;;;;5.00;3.00;;;;;9.90;77.91;98755.25;2060840;27;2754471;-83
2024/02/11 03:13:23;;;;;;;;;5.17;4.00;;;;;9.88;77.98;98748.41;2037673;27;2739884;-82
2024/02/11 03:14:36;;;;;;;;;3.33;2.50;;;;;9.90;77.97;98755.25;2037898;27;2750257;-82
2024/02/11 03:15:49;;;;;;;;;2.50;2.50;;;;;9.90;77.69;98744.75;2036610;27;2752367;-82
2024/02/11 03:17:03;;;;;;;;;6.33;3.00;;;;;9.92;77.70;98754.31;2038292;27;2741971;-82
2024/02/11 03:18:14;;;;;;;;;7.33;4.00;;;;;9.89;77.83;98753.56;2003552;27;2762835;-82
2024/02/11 03:19:26;;;;;;;;;5.00;1.75;;;;;9.90;78.08;98752.63;2060746;27;2754427;-82
2024/02/11 03:20:36;;;;;;;;;5.33;3.33;;;;;9.91;77.78;98748.22;2033972;27;3470031;-82
2024/02/11 03:21:49;;;;;;;;;6.00;4.00;;;;;9.90;77.95;98755.25;2050847;27;2754482;-82
2024/02/11 03:22:59;;;;;;;;;4.67;4.00;;;;;9.90;77.97;98757.88;2033410;27;2754456;-82
2024/02/11 03:24:10;;;;;;;;;4.00;4.00;;;;;9.92;77.86;98746.44;2051278;27;2752387;-82
2024/02/11 03:25:21;;;;;;;;;5.67;4.00;;;;;9.92;77.99;98751.69;2025536;28;2756548;-82
2024/02/11 03:26:31;;;;;;;;;6.00;4.67;;;;;9.94;78.05;98757.69;2043482;27;2754552;-82
2024/02/11 03:27:43;;;;;;;;;4.00;3.00;;;;;9.93;78.00;98755.97;2049667;28;2750261;-82
2024/02/11 03:28:56;;;;;;;;;3.83;2.83;;;;;9.95;77.81;98762.81;2022015;28;2748201;-82
2024/02/11 03:30:07;;;;;;;;;5.67;5.00;;;;;9.95;77.73;98762.00;2002480;27;3476277;-82
2024/02/11 03:31:19;;;;;;;;;5.00;5.00;;;;;9.95;78.12;98757.56;2035174;27;2754427;-82
2024/02/11 03:32:33;;;;;;;;;6.50;5.67;;;;;9.94;77.74;98755.91;2059996;27;2752400;-82
2024/02/11 03:33:46;;;;;;;;;7.33;2.83;;;;;9.95;77.79;98760.19;2037707;27;2744011;-83
2024/02/11 03:34:59;;;;;;;;;8.17;5.33;;;;;9.96;77.63;98761.91;2028535;28;2748178;-82
2024/02/11 03:36:16;;;;;;;;;5.67;3.67;;;;;9.96;77.78;98761.91;2030348;27;2734657;-82
2024/02/11 03:37:32;;;;;;;;;3.83;3.83;;;;;9.97;78.07;98768.00;2037265;27;2749256;-82
2024/02/11 03:38:45;;;;;;;;;2.17;1.83;;;;;9.96;77.96;98759.28;2034708;27;2739920;-83
2024/02/11 03:39:58;;;;;;;;;3.67;2.67;;;;;9.97;77.99;98757.50;2035864;27;2748240;-82
2024/02/11 03:41:12;;;;;;;;;3.17;2.00;;;;;9.98;77.86;98762.66;2034479;28;2738807;-82
2024/02/11 03:42:25;;;;;;;;;5.83;3.17;;;;;9.99;77.99;98766.13;2030518;27;2739227;-82
2024/02/11 03:43:35;;;;;;;;;3.33;2.33;;;;;9.98;77.91;98761.78;2011300;27;2754447;-82
2024/02/11 03:44:47;;;;;;;;;6.67;4.00;;;;;9.99;77.93;98760.88;2059911;27;2752711;-82
2024/02/11 03:46:02;;;;;;;;;4.17;2.00;;;;;10.00;77.98;98770.44;2060277;27;2737765;-82
2024/02/11 03:47:12;;;;;;;;;7.00;3.33;;;;;10.00;77.75;98765.19;2011169;27;2757583;-82
2024/02/11 03:48:24;;;;;;;;;6.67;5.00;;;;;10.00;77.96;98768.63;2049862;27;2760681;-82
2024/02/11 03:49:35;;;;;;;;;9.67;4.67;;;;;10.00;77.95;98767.81;2033346;27;3488773;-82
2024/02/11 03:50:46;;;;;;;;;4.00;4.00;;;;;10.01;77.99;98769.47;2052936;27;2742412;-82
2024/02/11 03:51:59;;;;;;;;;6.17;5.00;;;;;10.02;77.88;98771.19;2027651;28;2754861;-82
2024/02/11 03:53:15;;;;;;;;;3.33;1.67;;;;;10.02;78.02;98765.94;2029139;28;2730918;-82
2024/02/11 03:54:25;;;;;;;;;9.00;4.00;;;;;10.01;78.15;98770.34;1998044;28;2751338;-82
2024/02/11 03:55:36;;;;;;;;;7.33;3.33;;;;;10.03;78.06;98770.22;2054110;27;2751310;-82
2024/02/11 03:56:47;;;;;;;;;4.00;3.00;;;;;10.04;77.92;98771.06;2010828;27;2754454;-83
2024/02/11 03:57:59;;;;;;;;;4.33;3.00;;;;;10.03;77.86;98775.47;2043608;28;2750359;-82
2024/02/11 03:59:12;;;;;;;;;5.00;3.50;;;;;10.04;78.11;98766.69;2018940;28;2744039;-82
2024/02/11 04:00:25;;;;;;;;;4.00;4.00;;;;;10.04;77.99;98769.31;2003930;27;2754467;-82
2024/02/11 04:01:38;;;;;;;;;7.50;4.00;;;;;10.05;77.96;98768.34;2052103;28;2760670;-82
2024/02/11 04:02:54;;;;;;;;;6.83;5.50;;;;;10.06;77.93;98777.91;2025140;28;2736717;-82
2024/02/11 04:04:05;;;;;;;;;6.00;3.00;;;;;10.07;78.10;98777.00;1990870;28;3476274;-82
2024/02/11 04:05:16;;;;;;;;;5.67;4.33;;;;;10.05;77.80;98773.59;2033483;28;2754427;-82
2024/02/11 04:06:30;;;;;;;;;3.67;2.00;;;;;10.06;77.53;98777.06;2051541;28;2737090;-82
2024/02/11 04:07:45;;;;;;;;;5.00;3.33;;;;;10.08;77.77;98776.03;2030019;28;2738837;-82
2024/02/11 04:09:00;;;;;;;;;4.00;2.50;;;;;10.09;77.64;98777.72;2033984;27;2750265;-82
2024/02/11 04:10:28;;;;;;;;;6.67;2.83;;;;;10.08;77.61;98778.66;2038487;27;2739873;-82
2024/02/11 04:11:41;;;;;;;;;4.33;4.00;;;;;10.09;77.59;98785.59;2037325;27;2746102;-82
2024/02/11 04:12:52;;;;;;;;;8.00;4.00;;;;;10.09;77.87;98782.13;2010005;27;3470051;-82
2024/02/11 04:14:06;;;;;;;;;2.20;2.20;;;;;10.08;77.90;98777.81;2058390;27;2750293;-82
2024/02/11 04:15:19;;;;;;;;;6.00;3.00;;;;;10.10;77.53;98789.09;2026278;28;2754475;-82
2024/02/11 04:16:33;;;;;;;;;4.33;3.00;;;;;10.09;77.31;98784.75;2047144;28;2750276;-82
2024/02/11 04:17:48;;;;;;;;;3.83;2.67;;;;;10.10;77.45;98783.84;2029309;28;2729448;-82
2024/02/11 04:19:01;;;;;;;;;4.50;2.50;;;;;10.09;77.80;98790.84;2034335;27;2744019;-83
2024/02/11 04:20:24;;;;;;;;;4.50;3.17;;;;;10.10;77.71;98782.03;2060289;27;2746118;-82
2024/02/11 04:21:35;;;;;;;;;9.00;5.00;;;;;10.10;77.64;98797.78;2000111;28;3486696;-82
2024/02/11 04:22:48;;;;;;;;;5.33;2.00;;;;;10.11;77.31;98790.75;2054005;27;2737768;-82
2024/02/11 04:24:04;;;;;;;;;6.17;3.00;;;;;10.11;77.21;98791.59;2037049;27;2748190;-83
2024/02/11 04:25:20;;;;;;;;;3.50;2.33;;;;;10.11;77.30;98791.59;2060891;27;2733590;-82
2024/02/11 04:26:33;;;;;;;;;3.67;3.33;;;;;10.11;77.44;98791.59;2032545;27;2735694;-82
2024/02/11 04:27:47;;;;;;;;;3.33;1.67;;;;;10.13;77.30;98792.34;2053424;27;2739845;-82
2024/02/11 04:28:57;;;;;;;;;7.00;3.00;;;;;10.14;77.29;98795.81;1996033;27;2752383;-82
2024/02/11 04:30:12;;;;;;;;;6.00;3.00;;;;;10.14;76.99;98790.56;2048617;28;2729445;-82
2024/02/11 04:31:28;;;;;;;;;4.00;2.83;;;;;10.13;77.34;98800.22;2052274;28;2744059;-82
2024/02/11 04:32:42;;;;;;;;;3.83;3.50;;;;;10.15;77.03;98802.75;2029216;28;2742982;-82
2024/02/11 04:33:55;;;;;;;;;5.17;3.17;;;;;10.16;76.94;98806.22;2028499;28;2750297;-82
2024/02/11 04:35:11;;;;;;;;;4.83;3.83;;;;;10.14;76.86;98801.06;2027169;27;2748181;-82
2024/02/11 04:36:25;;;;;;;;;4.83;2.17;;;;;10.15;77.09;98799.28;2024849;27;2741950;-82
2024/02/11 04:37:46;;;;;;;;;2.83;1.83;;;;;10.18;77.17;98809.59;2039693;27;2727344;-82
2024/02/11 04:39:00;;;;;;;;;3.50;3.33;;;;;10.16;77.19;98801.81;2033791;27;2741938;-82
2024/02/11 04:40:10;;;;;;;;;4.00;3.00;;;;;10.18;77.10;98804.31;2012684;27;2750343;-82
2024/02/11 04:41:23;;;;;;;;;4.75;2.50;;;;;10.18;76.93;98806.97;2057956;27;2733639;-82
2024/02/11 04:42:41;;;;;;;;;5.50;3.33;;;;;10.17;77.38;98808.75;2032189;28;2739869;-82
2024/02/11 04:43:56;;;;;;;;;4.83;4.67;;;;;10.16;77.18;98799.19;2030644;28;2733603;-82
2024/02/11 04:45:14;;;;;;;;;3.67;2.17;;;;;10.15;76.98;98800.09;2036497;27;2740882;-82
2024/02/11 04:46:27;;;;;;;;;1.17;1.17;;;;;10.15;77.31;98805.38;2031071;28;2733606;-82
2024/02/11 04:47:45;;;;;;;;;4.17;2.17;;;;;10.18;77.13;98806.97;2030632;28;2732552;-82
2024/02/11 04:48:59;;;;;;;;;3.83;3.50;;;;;10.17;77.19;98800.88;2030417;27;2748170;-82
2024/02/11 04:50:15;;;;;;;;;3.67;3.67;;;;;10.18;77.06;98807.81;2032605;27;2754419;-82
2024/02/11 04:51:28;;;;;;;;;5.33;1.50;;;;;10.17;77.22;98803.50;2056718;27;2733615;-82
2024/02/11 04:52:48;;;;;;;;;2.67;2.67;;;;;10.19;76.98;98813.91;2054779;28;2735692;-83
2024/02/11 04:54:03;;;;;;;;;4.50;1.83;;;;;10.19;77.17;98803.41;2030835;28;2733593;-82
2024/02/11 04:55:18;;;;;;;;;1.50;1.50;;;;;10.17;76.76;98806.13;2045446;28;2740898;-82
2024/02/11 04:56:31;;;;;;;;;4.83;2.83;;;;;10.18;77.16;98804.31;2022902;28;2749211;-82
2024/02/11 04:57:44;;;;;;;;;6.83;3.17;;;;;10.17;77.15;98806.13;2030320;27;2739871;-82
2024/02/11 04:59:01;;;;;;;;;5.33;3.00;;;;;10.18;77.11;98806.97;2008243;27;2756537;-82
2024/02/11 05:00:24;;;;;;;;;6.67;3.83;;;;;10.17;77.26;98805.28;2057721;27;2756530;-82
2024/02/11 05:01:37;;;;;;;;;2.83;1.67;;;;;10.17;77.09;98811.38;2033922;27;2737768;-82
2024/02/11 05:02:53;;;;;;;;;2.00;1.50;;;;;10.17;77.02;98806.13;2062459;27;2735681;-82
2024/02/11 05:04:07;;;;;;;;;3.83;3.00;;;;;10.18;76.96;98809.59;2038921;27;2748229;-82
2024/02/11 05:05:19;;;;;;;;;5.33;3.00;;;;;10.17;77.17;98810.53;2005158;27;3465876;-82
2024/02/11 05:06:32;;;;;;;;;3.17;1.50;;;;;10.18;77.24;98817.47;2045736;28;2730473;-83
2024/02/11 05:07:47;;;;;;;;;4.33;2.83;;;;;10.18;77.00;98814.84;2046457;28;2736740;-82
2024/02/11 05:09:00;;;;;;;;;8.00;3.17;;;;;10.17;77.12;98810.53;2032135;27;2750325;-82
2024/02/11 05:10:16;;;;;;;;;6.83;2.67;;;;;10.19;77.13;98816.53;2038624;27;2750548;-83
2024/02/11 05:11:29;;;;;;;;;2.83;1.83;;;;;10.19;77.34;98821.78;2038376;27;2746095;-82
2024/02/11 05:12:44;;;;;;;;;3.33;1.83;;;;;10.19;77.24;98817.38;2039547;27;2739856;-82
2024/02/11 05:13:58;;;;;;;;;3.50;1.67;;;;;10.20;77.10;98823.44;2039127;27;2730502;-82
2024/02/11 05:15:13;;;;;;;;;2.33;1.50;;;;;10.20;77.21;98820.81;2039394;27;2739837;-82
2024/02/11 05:16:28;;;;;;;;;6.00;3.00;;;;;10.20;77.34;98826.06;2038048;27;2725297;-83
2024/02/11 05:17:41;;;;;;;;;6.17;2.67;;;;;10.21;77.02;98826.00;2061928;27;2733587;-82
2024/02/11 05:18:54;;;;;;;;;1.67;1.67;;;;;10.21;76.99;98819.91;2037730;27;2746150;-82
2024/02/11 05:20:12;;;;;;;;;6.17;3.50;;;;;10.20;77.25;98824.31;2036808;27;2748178;-82
2024/02/11 05:21:26;;;;;;;;;4.33;2.00;;;;;10.21;76.95;98825.16;2037431;27;2741983;-83
2024/02/11 05:22:44;;;;;;;;;2.67;1.50;;;;;10.20;77.23;98820.81;2038568;27;2736739;-82
2024/02/11 05:23:57;;;;;;;;;4.00;3.00;;;;;10.22;77.03;98824.22;2038914;27;2729975;-82
2024/02/11 05:25:19;;;;;;;;;4.83;3.00;;;;;10.20;76.92;98824.31;2062243;27;2744402;-83
2024/02/11 05:26:32;;;;;;;;;7.00;5.67;;;;;10.20;77.30;98828.69;2031109;27;2750733;-82
2024/02/11 05:27:59;;;;;;;;;5.00;2.67;;;;;10.21;76.87;98823.38;2030930;27;2737788;-82
2024/02/11 05:29:09;;;;;;;;;5.00;4.00;;;;;10.22;76.93;98821.59;2008759;27;2760692;-82
2024/02/11 05:30:25;;;;;;;;;2.50;1.75;;;;;10.22;77.04;98824.22;2061055;27;2741999;-83
2024/02/11 05:31:38;;;;;;;;;2.33;2.33;;;;;10.22;76.83;98825.03;2054656;28;2728386;-82
2024/02/11 05:32:53;;;;;;;;;4.00;2.50;;;;;10.22;77.02;98825.03;2053273;27;2739868;-82
2024/02/11 05:34:06;;;;;;;;;5.50;3.33;;;;;10.22;76.94;98825.03;2029811;28;2739873;-82
2024/02/11 05:35:17;;;;;;;;;4.00;4.00;;;;;10.22;76.48;98829.47;2003089;28;3466934;-82
2024/02/11 05:36:29;;;;;;;;;4.00;3.00;;;;;10.21;77.10;98827.78;2053207;28;2733630;-82
2024/02/11 05:37:44;;;;;;;;;4.33;2.17;;;;;10.20;76.82;98832.19;2030185;28;2732576;-82